Tuesday, October 16, 2018, 6:09 AM EDT
Back to Local

KDMH, Baltimore Downtown

Location: Baltimore, MD, United States Lat: 39.283
Local Time: 6:09 AM EDT (10:09 GMT) Lon: -76.617
Time Zone: US/Eastern Elev: 19 ft

Show me the last for .
Show Coded

Time T Td Feel RH Dir Speed Gust Alt SLP Vis Weather Sky Remarks
2018-10-16 05:54 57 40 - 52 - - - 30.14 30.14 0 None
2018-10-16 04:54 58 42 - 55 - - - 30.13 30.13 0 None
2018-10-16 03:54 60 42 - 51 - - - 30.11 30.11 0 None
2018-10-16 02:54 62 45 - 53 - - - 30.08 30.07 0 None
2018-10-16 01:54 64 52 - 64 - - - 30.06 30.05 0 6-hr Min Temp (2am): 64.0°F
6-hr Max Temp (2am): 71.1°F
2018-10-16 00:54 65 54 - 67 - - - 30.03 30.02 0 24-hr Min Temp (1am): 57.0°F
24-hr Max Temp (1am): 71.1°F
2018-10-15 23:54 68 59 - 72 - - - 29.99 29.99 0 Pressure rising rapidly
2018-10-15 22:54 71 66 76 84 - - - 29.96 29.96 0 None
2018-10-15 21:54 71 66 76 84 - - - 29.96 29.96 0 None
2018-10-15 20:54 69 66 - 90 - - - 29.96 29.96 0 None
2018-10-15 19:54 67 65 - 93 - - - 29.96 29.96 0 6-hr Precip Total (8pm): 0.03"
6-hr Min Temp (8pm): 66.0°F
6-hr Max Temp (8pm): 68.0°F
2018-10-15 18:54 68 65 - 89 - - - 29.96 29.96 0 None
2018-10-15 17:54 68 65 - 89 - - - 29.95 29.94 0 1-hr Precip Total: 0.01"
2018-10-15 16:54 68 65 - 89 - - - 29.98 29.98 0 6-hr Precip Total (5pm): 0.02"
2018-10-15 15:54 67 64 - 90 - - - 30.00 30.00 0 None
2018-10-15 14:54 67 65 - 93 - - - 30.00 29.99 0 1-hr Precip Total: 0.02"
2018-10-15 13:54 67 64 - 90 - - - 30.02 30.02 0 Pressure falling rapidly
1-hr Precip Total: 0.01"
6-hr Precip Total (2pm): 0.05"
6-hr Min Temp (2pm): 59.0°F
6-hr Max Temp (2pm): 68.0°F
2018-10-15 12:54 66 62 - 87 - - - 30.06 30.06 0 None
2018-10-15 11:54 64 61 - 89 - - - 30.09 30.08 0 None
2018-10-15 10:54 63 61 - 93 - - - 30.10 30.10 0 6-hr Precip Total (11am): 0.04"
2018-10-15 09:54 61 60 - 96 - - - 30.11 30.10 0 1-hr Precip Total: 0.02"
2018-10-15 08:54 60 59 - 96 - - - 30.12 30.11 0 1-hr Precip Total: 0.02"
2018-10-15 07:54 59 58 - 96 - - - 30.11 30.11 0 1-hr Precip Total: 0.02"
6-hr Precip Total (8am): 0.02"
24-hr Precip Total (8am): 0.04"
6-hr Min Temp (8am): 57.0°F
6-hr Max Temp (8am): 59.0°F
2018-10-15 06:54 58 57 - 96 - - - 30.12 30.12 0 None

Support USWX by starting your Amazon purchase here.